PWSweather.com
Personal Weather Stations
Station Observations
COONRAPIDS
Minneapolis, MN 55433

Minneapolis, MN 55433

Lat: 45.187721, Lon: -93.36828

Elevation: 898

Station Type: Davis Vantage Pro 2

High Low Average
Temperature 27.1°F-2.7°C 13.2°F-10.4°C 18.2°F-7.7°C
Dew Point 5.7°F-14.6°C -10.8°F-23.8°C -2.8°F-19.3°C
Winds 5.8 mph 9.3 kmh Calm Calm 1.0 mph SSE1.6 kmh SSE
Wind Gusts 9.2 mph14.8 kmh -- 3.0 mph4.8 kmh
Humidity 65% 21% 40%
Pressure 30.23 in1023.7 mb 30.14 in1020.7 mb -
Precipitation 0.00 in0.0 mm - -
Hour Temp Dew Point Humidity Winds Wind Gusts Pressure Precip Precip Rate Daily Precip Total
12:00 AM 17.9°F-7.8°C 0.6°F-17.4°C 46% 1.2 mph NNE1.9 kmh NNE 4.6 mph7.4 kmh 30.15 in1021.0 mb - 0.00 in0.0 mm 0.00 in0.0 mm
12:10 AM 17.9°F-7.8°C 0.1°F-17.7°C 45% Calm Calm 4.6 mph7.4 kmh 30.15 in1021.0 mb - 0.00 in0.0 mm 0.00 in0.0 mm
12:20 AM 17.9°F-7.8°C 0.1°F-17.7°C 45% 1.2 mph NNE1.9 kmh NNE 3.5 mph5.6 kmh 30.15 in1021.0 mb - 0.00 in0.0 mm 0.00 in0.0 mm
12:30 AM 18.0°F-7.8°C -0.8°F-18.2°C 43% 1.2 mph NE1.9 kmh NE 5.8 mph9.3 kmh 30.15 in1021.0 mb - 0.00 in0.0 mm 0.00 in0.0 mm
12:40 AM 18.0°F-7.8°C -0.8°F-18.2°C 43% 1.2 mph NE1.9 kmh NE 4.6 mph7.4 kmh 30.16 in1021.3 mb - 0.00 in0.0 mm 0.00 in0.0 mm
12:50 AM 18.0°F-7.8°C -0.8°F-18.2°C 43% 1.2 mph NE1.9 kmh NE 3.5 mph5.6 kmh 30.16 in1021.3 mb - 0.00 in0.0 mm 0.00 in0.0 mm
01:00 AM 18.0°F-7.8°C -1.3°F-18.5°C 42% 2.3 mph NNE3.7 kmh NNE 3.5 mph5.6 kmh 30.16 in1021.3 mb - 0.00 in0.0 mm 0.00 in0.0 mm
01:10 AM 18.0°F-7.8°C -1.3°F-18.5°C 42% 1.2 mph N1.9 kmh N 3.5 mph5.6 kmh 30.17 in1021.7 mb - 0.00 in0.0 mm 0.00 in0.0 mm
01:20 AM 18.0°F-7.8°C -0.8°F-18.2°C 43% 2.3 mph NE3.7 kmh NE 5.8 mph9.3 kmh 30.16 in1021.3 mb - 0.00 in0.0 mm 0.00 in0.0 mm
01:30 AM 18.0°F-7.8°C -0.8°F-18.2°C 43% 1.2 mph NE1.9 kmh NE 2.3 mph3.7 kmh 30.16 in1021.3 mb - 0.00 in0.0 mm 0.00 in0.0 mm
01:40 AM 17.9°F-7.8°C -0.9°F-18.3°C 43% 1.2 mph N1.9 kmh N 1.2 mph1.9 kmh 30.17 in1021.7 mb - 0.00 in0.0 mm 0.00 in0.0 mm
01:50 AM 17.9°F-7.8°C -0.4°F-18.0°C 44% 2.3 mph NNE3.7 kmh NNE 4.6 mph7.4 kmh 30.17 in1021.7 mb - 0.00 in0.0 mm 0.00 in0.0 mm
02:00 AM 17.8°F-7.9°C -1.0°F-18.3°C 43% 1.2 mph NNE1.9 kmh NNE 3.5 mph5.6 kmh 30.17 in1021.7 mb - 0.00 in0.0 mm 0.00 in0.0 mm
02:10 AM 17.7°F-7.9°C -0.6°F-18.1°C 44% 1.2 mph NE1.9 kmh NE 3.5 mph5.6 kmh 30.18 in1022.0 mb - 0.00 in0.0 mm 0.00 in0.0 mm
02:20 AM 17.6°F-8.0°C -0.6°F-18.1°C 44% 1.2 mph NNE1.9 kmh NNE 6.9 mph11.1 kmh 30.18 in1022.0 mb - 0.00 in0.0 mm 0.00 in0.0 mm
02:30 AM 17.5°F-8.1°C -0.7°F-18.2°C 44% 1.2 mph NNE1.9 kmh NNE 2.3 mph3.7 kmh 30.17 in1021.7 mb - 0.00 in0.0 mm 0.00 in0.0 mm
02:40 AM 17.4°F-8.1°C -0.4°F-18.0°C 45% 2.3 mph NNE3.7 kmh NNE 6.9 mph11.1 kmh 30.17 in1021.7 mb - 0.00 in0.0 mm 0.00 in0.0 mm
02:50 AM 17.2°F-8.2°C -0.6°F-18.1°C 45% 3.5 mph N5.6 kmh N 4.6 mph7.4 kmh 30.17 in1021.7 mb - 0.00 in0.0 mm 0.00 in0.0 mm
03:00 AM 17.0°F-8.3°C -0.7°F-18.2°C 45% 2.3 mph N3.7 kmh N 4.6 mph7.4 kmh 30.17 in1021.7 mb - 0.00 in0.0 mm 0.00 in0.0 mm
03:10 AM 16.8°F-8.4°C -0.9°F-18.3°C 45% 3.5 mph NNE5.6 kmh NNE 4.6 mph7.4 kmh 30.17 in1021.7 mb - 0.00 in0.0 mm 0.00 in0.0 mm
03:20 AM 16.6°F-8.6°C -0.6°F-18.1°C 46% 2.3 mph NNE3.7 kmh NNE 4.6 mph7.4 kmh 30.17 in1021.7 mb - 0.00 in0.0 mm 0.00 in0.0 mm
03:30 AM 16.5°F-8.6°C -0.3°F-17.9°C 47% Calm Calm -- 30.17 in1021.7 mb - 0.00 in0.0 mm 0.00 in0.0 mm
03:40 AM 16.5°F-8.6°C -0.7°F-18.2°C 46% 1.2 mph NNE1.9 kmh NNE 3.5 mph5.6 kmh 30.17 in1021.7 mb - 0.00 in0.0 mm 0.00 in0.0 mm
03:50 AM 16.2°F-8.8°C -1.4°F-18.6°C 45% 2.3 mph NE3.7 kmh NE 2.3 mph3.7 kmh 30.17 in1021.7 mb - 0.00 in0.0 mm 0.00 in0.0 mm
04:00 AM 16.1°F-8.8°C -1.1°F-18.4°C 46% 1.2 mph NNE1.9 kmh NNE 3.5 mph5.6 kmh 30.17 in1021.7 mb - 0.00 in0.0 mm 0.00 in0.0 mm
04:10 AM 16.1°F-8.8°C -1.1°F-18.4°C 46% 1.2 mph NNE1.9 kmh NNE 3.5 mph5.6 kmh 30.17 in1021.7 mb - 0.00 in0.0 mm 0.00 in0.0 mm
04:20 AM 16.0°F-8.9°C -1.2°F-18.4°C 46% Calm Calm 3.5 mph5.6 kmh 30.17 in1021.7 mb - 0.00 in0.0 mm 0.00 in0.0 mm
04:30 AM 15.7°F-9.1°C -1.4°F-18.6°C 46% 3.5 mph N5.6 kmh N 5.8 mph9.3 kmh 30.17 in1021.7 mb - 0.00 in0.0 mm 0.00 in0.0 mm
04:40 AM 15.6°F-9.1°C -1.6°F-18.7°C 46% Calm Calm 3.5 mph5.6 kmh 30.17 in1021.7 mb - 0.00 in0.0 mm 0.00 in0.0 mm
04:50 AM 15.5°F-9.2°C -1.6°F-18.7°C 46% 2.3 mph NNE3.7 kmh NNE 5.8 mph9.3 kmh 30.18 in1022.0 mb - 0.00 in0.0 mm 0.00 in0.0 mm
05:00 AM 15.4°F-9.2°C -1.7°F-18.7°C 46% 1.2 mph N1.9 kmh N 2.3 mph3.7 kmh 30.18 in1022.0 mb - 0.00 in0.0 mm 0.00 in0.0 mm
05:10 AM 15.3°F-9.3°C -1.4°F-18.6°C 47% 2.3 mph NNE3.7 kmh NNE 5.8 mph9.3 kmh 30.18 in1022.0 mb - 0.00 in0.0 mm 0.00 in0.0 mm
05:20 AM 15.1°F-9.4°C -1.5°F-18.6°C 47% 3.5 mph NNE5.6 kmh NNE 8.1 mph13.0 kmh 30.18 in1022.0 mb - 0.00 in0.0 mm 0.00 in0.0 mm
05:30 AM 15.1°F-9.4°C -1.1°F-18.4°C 48% 1.2 mph NNE1.9 kmh NNE 5.8 mph9.3 kmh 30.18 in1022.0 mb - 0.00 in0.0 mm 0.00 in0.0 mm
05:40 AM 15.1°F-9.4°C -1.1°F-18.4°C 48% 2.3 mph NE3.7 kmh NE 3.5 mph5.6 kmh 30.18 in1022.0 mb - 0.00 in0.0 mm 0.00 in0.0 mm
05:50 AM 14.7°F-9.6°C -3.3°F-19.6°C 44% 4.6 mph NE7.4 kmh NE 8.1 mph13.0 kmh 30.18 in1022.0 mb - 0.00 in0.0 mm 0.00 in0.0 mm
06:00 AM 14.3°F-9.8°C -3.2°F-19.6°C 45% 1.2 mph NE1.9 kmh NE 3.5 mph5.6 kmh 30.18 in1022.0 mb - 0.00 in0.0 mm 0.00 in0.0 mm
06:10 AM 14.0°F-10.0°C -3.0°F-19.4°C 46% 1.2 mph NE1.9 kmh NE 3.5 mph5.6 kmh 30.18 in1022.0 mb - 0.00 in0.0 mm 0.00 in0.0 mm
06:20 AM 14.0°F-10.0°C -2.1°F-18.9°C 48% 3.5 mph NNE5.6 kmh NNE 6.9 mph11.1 kmh 30.19 in1022.4 mb - 0.00 in0.0 mm 0.00 in0.0 mm
06:30 AM 14.0°F-10.0°C -2.1°F-18.9°C 48% 1.2 mph NE1.9 kmh NE 6.9 mph11.1 kmh 30.20 in1022.7 mb - 0.00 in0.0 mm 0.00 in0.0 mm
06:40 AM 13.9°F-10.1°C -2.2°F-19.0°C 48% 2.3 mph NNE3.7 kmh NNE 4.6 mph7.4 kmh 30.20 in1022.7 mb - 0.00 in0.0 mm 0.00 in0.0 mm
06:50 AM 13.7°F-10.2°C -3.7°F-19.8°C 45% 3.5 mph N5.6 kmh N 5.8 mph9.3 kmh 30.20 in1022.7 mb - 0.00 in0.0 mm 0.00 in0.0 mm
07:00 AM 13.5°F-10.3°C -3.9°F-19.9°C 45% 3.5 mph N5.6 kmh N 4.6 mph7.4 kmh 30.20 in1022.7 mb - 0.00 in0.0 mm 0.00 in0.0 mm
07:10 AM 13.4°F-10.3°C -4.0°F-20.0°C 45% 2.3 mph NE3.7 kmh NE 3.5 mph5.6 kmh 30.20 in1022.7 mb - 0.00 in0.0 mm 0.00 in0.0 mm
07:20 AM 13.4°F-10.3°C -4.0°F-20.0°C 45% 2.3 mph NNE3.7 kmh NNE 3.5 mph5.6 kmh 30.20 in1022.7 mb - 0.00 in0.0 mm 0.00 in0.0 mm
07:30 AM 13.3°F-10.4°C -4.6°F-20.3°C 44% 3.5 mph N5.6 kmh N 5.8 mph9.3 kmh 30.20 in1022.7 mb - 0.00 in0.0 mm 0.00 in0.0 mm
07:40 AM 13.2°F-10.4°C -4.7°F-20.4°C 44% 2.3 mph NNE3.7 kmh NNE 5.8 mph9.3 kmh 30.20 in1022.7 mb - 0.00 in0.0 mm 0.00 in0.0 mm
07:50 AM 13.2°F-10.4°C -4.7°F-20.4°C 44% 4.6 mph N7.4 kmh N 8.1 mph13.0 kmh 30.20 in1022.7 mb - 0.00 in0.0 mm 0.00 in0.0 mm
08:00 AM 13.3°F-10.4°C -5.1°F-20.6°C 43% Calm Calm 3.5 mph5.6 kmh 30.21 in1023.0 mb - 0.00 in0.0 mm 0.00 in0.0 mm
08:10 AM 13.5°F-10.3°C -4.9°F-20.5°C 43% 1.2 mph N1.9 kmh N 6.9 mph11.1 kmh 30.21 in1023.0 mb - 0.00 in0.0 mm 0.00 in0.0 mm
08:20 AM 13.5°F-10.3°C -4.4°F-20.2°C 44% 2.3 mph N3.7 kmh N 3.5 mph5.6 kmh 30.22 in1023.4 mb - 0.00 in0.0 mm 0.00 in0.0 mm
08:30 AM 13.5°F-10.3°C -5.9°F-21.1°C 41% 2.3 mph NNE3.7 kmh NNE 9.2 mph14.8 kmh 30.23 in1023.7 mb - 0.00 in0.0 mm 0.00 in0.0 mm
08:40 AM 13.5°F-10.3°C -5.9°F-21.1°C 41% 3.5 mph NNE5.6 kmh NNE 4.6 mph7.4 kmh 30.23 in1023.7 mb - 0.00 in0.0 mm 0.00 in0.0 mm
08:50 AM 13.4°F-10.3°C -6.0°F-21.1°C 41% 2.3 mph NE3.7 kmh NE 8.1 mph13.0 kmh 30.23 in1023.7 mb - 0.00 in0.0 mm 0.00 in0.0 mm
09:00 AM 13.7°F-10.2°C -5.7°F-20.9°C 41% 3.5 mph N5.6 kmh N 8.1 mph13.0 kmh 30.23 in1023.7 mb - 0.00 in0.0 mm 0.00 in0.0 mm
09:10 AM 13.7°F-10.2°C -5.7°F-20.9°C 41% 1.2 mph NNE1.9 kmh NNE 6.9 mph11.1 kmh 30.23 in1023.7 mb - 0.00 in0.0 mm 0.00 in0.0 mm
09:20 AM 13.7°F-10.2°C -7.3°F-21.8°C 38% 1.2 mph NNE1.9 kmh NNE 6.9 mph11.1 kmh 30.23 in1023.7 mb - 0.00 in0.0 mm 0.00 in0.0 mm
09:30 AM 14.0°F-10.0°C -7.5°F-21.9°C 37% 1.2 mph NE1.9 kmh NE 1.2 mph1.9 kmh 30.23 in1023.7 mb - 0.00 in0.0 mm 0.00 in0.0 mm
09:40 AM 14.7°F-9.6°C -5.8°F-21.0°C 39% 1.2 mph NNE1.9 kmh NNE 6.9 mph11.1 kmh 30.23 in1023.7 mb - 0.00 in0.0 mm 0.00 in0.0 mm
09:50 AM 14.8°F-9.6°C -8.0°F-22.2°C 35% 1.2 mph N1.9 kmh N 1.2 mph1.9 kmh 30.23 in1023.7 mb - 0.00 in0.0 mm 0.00 in0.0 mm
10:00 AM 15.2°F-9.3°C -7.6°F-22.0°C 35% 3.5 mph NNE5.6 kmh NNE 6.9 mph11.1 kmh 30.23 in1023.7 mb - 0.00 in0.0 mm 0.00 in0.0 mm
10:10 AM 15.1°F-9.4°C -7.7°F-22.1°C 35% 2.3 mph NE3.7 kmh NE 3.5 mph5.6 kmh 30.23 in1023.7 mb - 0.00 in0.0 mm 0.00 in0.0 mm
10:20 AM 15.3°F-9.3°C -7.5°F-21.9°C 35% 1.2 mph NNE1.9 kmh NNE 4.6 mph7.4 kmh 30.23 in1023.7 mb - 0.00 in0.0 mm 0.00 in0.0 mm
10:30 AM 15.9°F-8.9°C -8.2°F-22.3°C 33% Calm Calm 2.3 mph3.7 kmh 30.23 in1023.7 mb - 0.00 in0.0 mm 0.00 in0.0 mm
10:40 AM 16.0°F-8.9°C -7.5°F-21.9°C 34% 1.2 mph N1.9 kmh N 3.5 mph5.6 kmh 30.23 in1023.7 mb - 0.00 in0.0 mm 0.00 in0.0 mm
10:50 AM 15.8°F-9.0°C -7.1°F-21.7°C 35% Calm Calm -- 30.23 in1023.7 mb - 0.00 in0.0 mm 0.00 in0.0 mm
11:00 AM 16.1°F-8.8°C -7.4°F-21.9°C 34% 1.2 mph N1.9 kmh N 2.3 mph3.7 kmh 30.23 in1023.7 mb - 0.00 in0.0 mm 0.00 in0.0 mm
11:10 AM 16.8°F-8.4°C -10.0°F-23.3°C 29% 1.2 mph NNW1.9 kmh NNW 3.5 mph5.6 kmh 30.23 in1023.7 mb - 0.00 in0.0 mm 0.00 in0.0 mm
11:20 AM 17.6°F-8.0°C -10.8°F-23.8°C 27% 1.2 mph NNE1.9 kmh NNE 5.8 mph9.3 kmh 30.22 in1023.4 mb - 0.00 in0.0 mm 0.00 in0.0 mm
11:30 AM 18.4°F-7.6°C -9.3°F-22.9°C 28% Calm Calm 5.8 mph9.3 kmh 30.22 in1023.4 mb - 0.00 in0.0 mm 0.00 in0.0 mm
11:40 AM 19.1°F-7.2°C -8.7°F-22.6°C 28% Calm Calm 3.5 mph5.6 kmh 30.22 in1023.4 mb - 0.00 in0.0 mm 0.00 in0.0 mm
11:50 AM 20.1°F-6.6°C -7.9°F-22.2°C 28% 2.3 mph NE3.7 kmh NE 4.6 mph7.4 kmh 30.22 in1023.4 mb - 0.00 in0.0 mm 0.00 in0.0 mm
12:00 PM 19.8°F-6.8°C -8.1°F-22.3°C 28% 1.2 mph N1.9 kmh N 3.5 mph5.6 kmh 30.22 in1023.4 mb - 0.00 in0.0 mm 0.00 in0.0 mm
12:10 PM 20.3°F-6.5°C -7.0°F-21.7°C 29% 2.3 mph N3.7 kmh N 5.8 mph9.3 kmh 30.21 in1023.0 mb - 0.00 in0.0 mm 0.00 in0.0 mm
12:20 PM 20.2°F-6.6°C -7.8°F-22.1°C 28% Calm Calm 2.3 mph3.7 kmh 30.21 in1023.0 mb - 0.00 in0.0 mm 0.00 in0.0 mm
12:30 PM 20.8°F-6.2°C -8.7°F-22.6°C 26% 2.3 mph NNE3.7 kmh NNE 5.8 mph9.3 kmh 30.20 in1022.7 mb - 0.00 in0.0 mm 0.00 in0.0 mm
12:40 PM 21.5°F-5.8°C -7.4°F-21.9°C 27% 2.3 mph N3.7 kmh N 3.5 mph5.6 kmh 30.20 in1022.7 mb - 0.00 in0.0 mm 0.00 in0.0 mm
12:50 PM 21.6°F-5.8°C -6.5°F-21.4°C 28% 2.3 mph NNW3.7 kmh NNW 3.5 mph5.6 kmh 30.20 in1022.7 mb - 0.00 in0.0 mm 0.00 in0.0 mm
01:00 PM 22.0°F-5.6°C -6.9°F-21.6°C 27% 2.3 mph N3.7 kmh N 5.8 mph9.3 kmh 30.20 in1022.7 mb - 0.00 in0.0 mm 0.00 in0.0 mm
01:10 PM 22.6°F-5.2°C -7.2°F-21.8°C 26% 2.3 mph N3.7 kmh N 8.1 mph13.0 kmh 30.19 in1022.4 mb - 0.00 in0.0 mm 0.00 in0.0 mm
01:20 PM 22.6°F-5.2°C -7.2°F-21.8°C 26% 1.2 mph N1.9 kmh N 3.5 mph5.6 kmh 30.18 in1022.0 mb - 0.00 in0.0 mm 0.00 in0.0 mm
01:30 PM 23.4°F-4.8°C -5.0°F-20.6°C 28% 2.3 mph N3.7 kmh N 3.5 mph5.6 kmh 30.18 in1022.0 mb - 0.00 in0.0 mm 0.00 in0.0 mm
01:40 PM 23.6°F-4.7°C -6.3°F-21.3°C 26% 2.3 mph NNW3.7 kmh NNW 5.8 mph9.3 kmh 30.18 in1022.0 mb - 0.00 in0.0 mm 0.00 in0.0 mm
01:50 PM 24.0°F-4.4°C -6.0°F-21.1°C 26% Calm Calm -- 30.17 in1021.7 mb - 0.00 in0.0 mm 0.00 in0.0 mm
02:00 PM 24.4°F-4.2°C -6.4°F-21.3°C 25% 1.2 mph NW1.9 kmh NW 4.6 mph7.4 kmh 30.16 in1021.3 mb - 0.00 in0.0 mm 0.00 in0.0 mm
02:10 PM 24.7°F-4.1°C -5.4°F-20.8°C 26% 2.3 mph NW3.7 kmh NW 6.9 mph11.1 kmh 30.16 in1021.3 mb - 0.00 in0.0 mm 0.00 in0.0 mm
02:20 PM 24.1°F-4.4°C -5.1°F-20.6°C 27% 1.2 mph NE1.9 kmh NE 3.5 mph5.6 kmh 30.15 in1021.0 mb - 0.00 in0.0 mm 0.00 in0.0 mm
02:30 PM 24.9°F-3.9°C -6.0°F-21.1°C 25% 2.3 mph NW3.7 kmh NW 8.1 mph13.0 kmh 30.15 in1021.0 mb - 0.00 in0.0 mm 0.00 in0.0 mm
02:40 PM 25.3°F-3.7°C -4.9°F-20.5°C 26% Calm Calm -- 30.14 in1020.7 mb - 0.00 in0.0 mm 0.00 in0.0 mm
02:50 PM 25.6°F-3.6°C -7.1°F-21.7°C 23% 2.3 mph NW3.7 kmh NW 3.5 mph5.6 kmh 30.15 in1021.0 mb - 0.00 in0.0 mm 0.00 in0.0 mm
03:00 PM 26.0°F-3.3°C -6.0°F-21.1°C 24% Calm Calm -- 30.15 in1021.0 mb - 0.00 in0.0 mm 0.00 in0.0 mm
03:10 PM 26.8°F-2.9°C -6.1°F-21.2°C 23% 1.2 mph N1.9 kmh N 3.5 mph5.6 kmh 30.15 in1021.0 mb - 0.00 in0.0 mm 0.00 in0.0 mm
03:20 PM 27.0°F-2.8°C -6.9°F-21.6°C 22% Calm Calm -- 30.15 in1021.0 mb - 0.00 in0.0 mm 0.00 in0.0 mm
03:30 PM 27.1°F-2.7°C -7.8°F-22.1°C 21% 2.3 mph W3.7 kmh W 4.6 mph7.4 kmh 30.15 in1021.0 mb - 0.00 in0.0 mm 0.00 in0.0 mm
03:40 PM 26.8°F-2.9°C -5.3°F-20.7°C 24% 1.2 mph N1.9 kmh N 3.5 mph5.6 kmh 30.15 in1021.0 mb - 0.00 in0.0 mm 0.00 in0.0 mm
03:50 PM 26.9°F-2.8°C -6.0°F-21.1°C 23% 5.8 mph NW9.3 kmh NW 9.2 mph14.8 kmh 30.14 in1020.7 mb - 0.00 in0.0 mm 0.00 in0.0 mm
04:00 PM 26.3°F-3.2°C -4.8°F-20.4°C 25% Calm Calm 1.2 mph1.9 kmh 30.14 in1020.7 mb - 0.00 in0.0 mm 0.00 in0.0 mm
04:10 PM 26.7°F-2.9°C -5.3°F-20.7°C 24% 1.2 mph N1.9 kmh N 1.2 mph1.9 kmh 30.14 in1020.7 mb - 0.00 in0.0 mm 0.00 in0.0 mm
04:20 PM 26.3°F-3.2°C -4.8°F-20.4°C 25% 2.3 mph NW3.7 kmh NW 3.5 mph5.6 kmh 30.14 in1020.7 mb - 0.00 in0.0 mm 0.00 in0.0 mm
04:30 PM 26.1°F-3.3°C -5.0°F-20.6°C 25% 1.2 mph WNW1.9 kmh WNW 4.6 mph7.4 kmh 30.14 in1020.7 mb - 0.00 in0.0 mm 0.00 in0.0 mm
04:40 PM 26.3°F-3.2°C -4.8°F-20.4°C 25% 1.2 mph NW1.9 kmh NW 3.5 mph5.6 kmh 30.14 in1020.7 mb - 0.00 in0.0 mm 0.00 in0.0 mm
04:50 PM 26.5°F-3.1°C -4.6°F-20.3°C 25% 2.3 mph WNW3.7 kmh WNW 5.8 mph9.3 kmh 30.14 in1020.7 mb - 0.00 in0.0 mm 0.00 in0.0 mm
05:00 PM 25.7°F-3.5°C -5.3°F-20.7°C 25% 2.3 mph NNW3.7 kmh NNW 4.6 mph7.4 kmh 30.14 in1020.7 mb - 0.00 in0.0 mm 0.00 in0.0 mm
05:10 PM 24.9°F-3.9°C -5.2°F-20.7°C 26% Calm Calm -- 30.14 in1020.7 mb - 0.00 in0.0 mm 0.00 in0.0 mm
05:20 PM 24.3°F-4.3°C -4.9°F-20.5°C 27% Calm Calm -- 30.14 in1020.7 mb - 0.00 in0.0 mm 0.00 in0.0 mm
05:30 PM 24.1°F-4.4°C -5.1°F-20.6°C 27% Calm Calm -- 30.14 in1020.7 mb - 0.00 in0.0 mm 0.00 in0.0 mm
05:40 PM 23.9°F-4.5°C -4.6°F-20.3°C 28% Calm Calm 3.5 mph5.6 kmh 30.14 in1020.7 mb - 0.00 in0.0 mm 0.00 in0.0 mm
05:50 PM 23.6°F-4.7°C -3.4°F-19.7°C 30% Calm Calm 3.5 mph5.6 kmh 30.15 in1021.0 mb - 0.00 in0.0 mm 0.00 in0.0 mm
06:00 PM 23.2°F-4.9°C -3.7°F-19.8°C 30% Calm Calm -- 30.15 in1021.0 mb - 0.00 in0.0 mm 0.00 in0.0 mm
06:10 PM 22.9°F-5.1°C -4.0°F-20.0°C 30% Calm Calm -- 30.15 in1021.0 mb - 0.00 in0.0 mm 0.00 in0.0 mm
06:20 PM 22.6°F-5.2°C -4.2°F-20.1°C 30% Calm Calm -- 30.15 in1021.0 mb - 0.00 in0.0 mm 0.00 in0.0 mm
06:30 PM 22.2°F-5.4°C -3.2°F-19.6°C 32% Calm Calm -- 30.15 in1021.0 mb - 0.00 in0.0 mm 0.00 in0.0 mm
06:40 PM 21.7°F-5.7°C -2.4°F-19.1°C 34% Calm Calm -- 30.15 in1021.0 mb - 0.00 in0.0 mm 0.00 in0.0 mm
06:50 PM 20.9°F-6.2°C -2.5°F-19.2°C 35% Calm Calm -- 30.15 in1021.0 mb - 0.00 in0.0 mm 0.00 in0.0 mm
07:00 PM 20.5°F-6.4°C -2.3°F-19.1°C 36% Calm Calm -- 30.15 in1021.0 mb - 0.00 in0.0 mm 0.00 in0.0 mm
07:10 PM 19.8°F-6.8°C -1.7°F-18.7°C 38% Calm Calm -- 30.16 in1021.3 mb - 0.00 in0.0 mm 0.00 in0.0 mm
07:20 PM 19.1°F-7.2°C -1.3°F-18.5°C 40% Calm Calm -- 30.16 in1021.3 mb - 0.00 in0.0 mm 0.00 in0.0 mm
07:30 PM 18.4°F-7.6°C -0.9°F-18.3°C 42% Calm Calm -- 30.16 in1021.3 mb - 0.00 in0.0 mm 0.00 in0.0 mm
07:40 PM 18.0°F-7.8°C -0.8°F-18.2°C 43% Calm Calm -- 30.16 in1021.3 mb - 0.00 in0.0 mm 0.00 in0.0 mm
07:50 PM 17.6°F-8.0°C 0.3°F-17.6°C 46% Calm Calm -- 30.16 in1021.3 mb - 0.00 in0.0 mm 0.00 in0.0 mm
08:00 PM 17.0°F-8.3°C 0.2°F-17.7°C 47% Calm Calm -- 30.16 in1021.3 mb - 0.00 in0.0 mm 0.00 in0.0 mm
08:10 PM 16.6°F-8.6°C 0.7°F-17.4°C 49% Calm Calm -- 30.16 in1021.3 mb - 0.00 in0.0 mm 0.00 in0.0 mm
08:20 PM 16.2°F-8.8°C 0.8°F-17.3°C 50% Calm Calm -- 30.16 in1021.3 mb - 0.00 in0.0 mm 0.00 in0.0 mm
08:30 PM 16.1°F-8.8°C 1.5°F-16.9°C 52% Calm Calm -- 30.15 in1021.0 mb - 0.00 in0.0 mm 0.00 in0.0 mm
08:40 PM 15.9°F-8.9°C 1.8°F-16.8°C 53% Calm Calm -- 30.15 in1021.0 mb - 0.00 in0.0 mm 0.00 in0.0 mm
08:50 PM 15.7°F-9.1°C 2.4°F-16.4°C 55% Calm Calm -- 30.15 in1021.0 mb - 0.00 in0.0 mm 0.00 in0.0 mm
09:00 PM 15.4°F-9.2°C 2.5°F-16.4°C 56% Calm Calm -- 30.15 in1021.0 mb - 0.00 in0.0 mm 0.00 in0.0 mm
09:10 PM 15.1°F-9.4°C 2.6°F-16.3°C 57% Calm Calm -- 30.15 in1021.0 mb - 0.00 in0.0 mm 0.00 in0.0 mm
09:20 PM 14.7°F-9.6°C 2.6°F-16.3°C 58% Calm Calm -- 30.15 in1021.0 mb - 0.00 in0.0 mm 0.00 in0.0 mm
09:30 PM 14.4°F-9.8°C 3.0°F-16.1°C 60% Calm Calm -- 30.15 in1021.0 mb - 0.00 in0.0 mm 0.00 in0.0 mm
09:40 PM 14.3°F-9.8°C 2.9°F-16.2°C 60% Calm Calm -- 30.15 in1021.0 mb - 0.00 in0.0 mm 0.00 in0.0 mm
09:50 PM 14.5°F-9.7°C 3.1°F-16.1°C 60% Calm Calm -- 30.15 in1021.0 mb - 0.00 in0.0 mm 0.00 in0.0 mm
10:00 PM 14.4°F-9.8°C 3.4°F-15.9°C 61% Calm Calm -- 30.15 in1021.0 mb - 0.00 in0.0 mm 0.00 in0.0 mm
10:10 PM 14.1°F-9.9°C 3.8°F-15.7°C 63% Calm Calm -- 30.15 in1021.0 mb - 0.00 in0.0 mm 0.00 in0.0 mm
10:20 PM 14.2°F-9.9°C 3.9°F-15.6°C 63% Calm Calm -- 30.15 in1021.0 mb - 0.00 in0.0 mm 0.00 in0.0 mm
10:30 PM 14.2°F-9.9°C 4.2°F-15.4°C 64% Calm Calm -- 30.15 in1021.0 mb - 0.00 in0.0 mm 0.00 in0.0 mm
10:40 PM 14.1°F-9.9°C 4.5°F-15.3°C 65% Calm Calm -- 30.15 in1021.0 mb - 0.00 in0.0 mm 0.00 in0.0 mm
10:50 PM 14.0°F-10.0°C 4.4°F-15.3°C 65% Calm Calm -- 30.15 in1021.0 mb - 0.00 in0.0 mm 0.00 in0.0 mm
11:00 PM 14.1°F-9.9°C 4.5°F-15.3°C 65% Calm Calm -- 30.14 in1020.7 mb - 0.00 in0.0 mm 0.00 in0.0 mm
11:10 PM 14.8°F-9.6°C 5.2°F-14.9°C 65% Calm Calm -- 30.14 in1020.7 mb - 0.00 in0.0 mm 0.00 in0.0 mm
11:20 PM 15.7°F-9.1°C 5.3°F-14.8°C 63% Calm Calm -- 30.14 in1020.7 mb - 0.00 in0.0 mm 0.00 in0.0 mm
11:30 PM 16.1°F-8.8°C 5.7°F-14.6°C 63% Calm Calm -- 30.15 in1021.0 mb - 0.00 in0.0 mm 0.00 in0.0 mm
11:40 PM 16.2°F-8.8°C 5.4°F-14.8°C 62% Calm Calm -- 30.14 in1020.7 mb - 0.00 in0.0 mm 0.00 in0.0 mm
11:50 PM 15.8°F-9.0°C 5.4°F-14.8°C 63% Calm Calm -- 30.14 in1020.7 mb - 0.00 in0.0 mm 0.00 in0.0 mm